Time;durP1;ratioP1;P1;durP2;ratioP2;P2;SDS_P1;SDS_P2;PMS_P1;PMS_P2;Temp;Humidity;BMP_temperature;BMP_pressure;BME280_temperature;BME280_humidity;BME280_pressure;Samples;Min_cycle;Max_cycle;Signal;HPM_P1;HPM_P2
2022/06/16 00:00:09;;;;;;;1.67;1.25;;;;;;;;;;5001604;28;20133;-58
2022/06/16 00:02:39;;;;;;;1.27;1.05;;;;;;;;;;4992228;28;20109;-58
2022/06/16 00:05:06;;;;;;;3.10;1.45;;;;;;;;;;4992150;28;20128;-58
2022/06/16 00:07:32;;;;;;;1.17;1.05;;;;;;;;;;4991358;28;20680;-58
2022/06/16 00:09:58;;;;;;;1.25;1.15;;;;;;;;;;4990080;28;20447;-58
2022/06/16 00:12:24;;;;;;;1.50;1.20;;;;;;;;;;4990618;28;20623;-58
2022/06/16 00:14:50;;;;;;;2.28;1.20;;;;;;;;;;4997127;28;20554;-58
2022/06/16 00:17:16;;;;;;;2.00;1.33;;;;;;;;;;4977816;28;20053;-58
2022/06/16 00:19:42;;;;;;;1.40;1.30;;;;;;;;;;4991941;28;20070;-61
2022/06/16 00:22:08;;;;;;;2.00;1.17;;;;;;;;;;5006252;28;20046;-59
2022/06/16 00:24:34;;;;;;;1.98;1.45;;;;;;;;;;4990278;28;20038;-57
2022/06/16 00:27:00;;;;;;;2.92;1.30;;;;;;;;;;4990828;28;20214;-57
2022/06/16 00:29:26;;;;;;;1.63;1.10;;;;;;;;;;4998548;28;20130;-57
2022/06/16 00:31:53;;;;;;;1.20;1.00;;;;;;;;;;5008453;28;20050;-57
2022/06/16 00:34:19;;;;;;;1.83;1.10;;;;;;;;;;5001148;28;20050;-58
2022/06/16 00:36:45;;;;;;;1.77;1.17;;;;;;;;;;4991649;28;20054;-58
2022/06/16 00:39:11;;;;;;;1.63;1.13;;;;;;;;;;4990627;28;20145;-59
2022/06/16 00:41:37;;;;;;;2.22;1.17;;;;;;;;;;4990022;28;20564;-58
2022/06/16 00:44:14;;;;;;;1.48;1.05;;;;;;;;;;5010181;28;20395;-58
2022/06/16 00:46:40;;;;;;;1.48;1.30;;;;;;;;;;5010516;28;20056;-58
2022/06/16 00:49:08;;;;;;;2.42;1.10;;;;;;;;;;5010752;28;20100;-58
2022/06/16 00:51:37;;;;;;;2.20;1.20;;;;;;;;;;5010364;28;20107;-59
2022/06/16 00:54:12;;;;;;;2.80;1.52;;;;;;;;;;5009979;28;20080;-57
2022/06/16 00:56:38;;;;;;;1.00;0.90;;;;;;;;;;5009580;28;20450;-58
2022/06/16 00:59:06;;;;;;;1.95;1.17;;;;;;;;;;4998912;28;20049;-58
2022/06/16 01:01:34;;;;;;;1.30;1.15;;;;;;;;;;4992132;28;20046;-59
2022/06/16 01:06:46;;;;;;;2.30;1.05;;;;;;;;;;5010865;28;20100;-58
2022/06/16 01:09:20;;;;;;;2.55;1.27;;;;;;;;;;5009715;28;20108;-58
2022/06/16 01:14:54;;;;;;;2.72;1.20;;;;;;;;;;5005042;28;20041;-59
2022/06/16 01:17:38;;;;;;;2.10;1.02;;;;;;;;;;5006613;28;20128;-58
2022/06/16 01:20:23;;;;;;;1.35;1.00;;;;;;;;;;4996656;28;20054;-59
2022/06/16 01:23:00;;;;;;;1.83;1.10;;;;;;;;;;4990733;28;20052;-57
2022/06/16 01:25:29;;;;;;;1.83;1.38;;;;;;;;;;4989540;28;20074;-58
2022/06/16 01:28:01;;;;;;;2.30;1.30;;;;;;;;;;4990128;28;20146;-58
2022/06/16 01:30:32;;;;;;;2.72;1.10;;;;;;;;;;4999458;28;20130;-57
2022/06/16 01:33:03;;;;;;;1.30;1.10;;;;;;;;;;5010300;28;20053;-58
2022/06/16 01:35:35;;;;;;;1.90;0.98;;;;;;;;;;5009460;28;20061;-59
2022/06/16 01:38:20;;;;;;;1.58;1.08;;;;;;;;;;5009903;28;20052;-59
2022/06/16 01:40:50;;;;;;;1.33;1.20;;;;;;;;;;4979441;28;20053;-59
2022/06/16 01:43:20;;;;;;;1.80;1.25;;;;;;;;;;4989694;28;20577;-58
2022/06/16 01:46:15;;;;;;;2.03;1.20;;;;;;;;;;4990375;28;20090;-57
2022/06/16 01:48:43;;;;;;;2.25;1.23;;;;;;;;;;4973078;28;20125;-58
2022/06/16 01:51:13;;;;;;;1.17;0.95;;;;;;;;;;4990369;28;20050;-58
2022/06/16 01:53:51;;;;;;;1.10;1.00;;;;;;;;;;4989772;28;20092;-59
2022/06/16 01:56:20;;;;;;;1.65;1.20;;;;;;;;;;4989594;28;20065;-59
2022/06/16 01:58:52;;;;;;;1.42;1.25;;;;;;;;;;4990511;28;20049;-59
2022/06/16 02:01:19;;;;;;;1.35;0.90;;;;;;;;;;4991071;28;20066;-58
2022/06/16 02:03:54;;;;;;;1.88;1.20;;;;;;;;;;4990011;28;20128;-58
2022/06/16 02:06:29;;;;;;;1.77;1.27;;;;;;;;;;4989979;28;20049;-61
2022/06/16 02:09:01;;;;;;;1.02;0.95;;;;;;;;;;4989161;28;20049;-59
2022/06/16 02:11:30;;;;;;;1.13;1.02;;;;;;;;;;4989414;28;20085;-57
2022/06/16 02:14:19;;;;;;;2.30;1.45;;;;;;;;;;4988785;28;20048;-58
2022/06/16 02:16:45;;;;;;;2.25;1.05;;;;;;;;;;4976230;28;20157;-58
2022/06/16 02:19:13;;;;;;;2.65;1.17;;;;;;;;;;4989918;28;20047;-59
2022/06/16 02:21:41;;;;;;;2.13;1.20;;;;;;;;;;4991643;28;20041;-58
2022/06/16 02:24:10;;;;;;;1.92;1.00;;;;;;;;;;4997790;28;20042;-58
2022/06/16 02:26:37;;;;;;;1.67;1.23;;;;;;;;;;5008834;28;20085;-60
2022/06/16 02:29:19;;;;;;;2.75;1.20;;;;;;;;;;5005953;28;20050;-57
2022/06/16 02:32:04;;;;;;;1.90;1.42;;;;;;;;;;4993213;28;20661;-58
2022/06/16 02:34:33;;;;;;;1.42;1.30;;;;;;;;;;4993295;28;20104;-59
2022/06/16 02:37:02;;;;;;;4.45;1.35;;;;;;;;;;4993880;28;20057;-58
2022/06/16 02:39:46;;;;;;;3.08;1.10;;;;;;;;;;4992200;28;20597;-58
2022/06/16 02:42:31;;;;;;;1.42;1.10;;;;;;;;;;4991279;28;20046;-58
2022/06/16 02:45:04;;;;;;;1.58;0.90;;;;;;;;;;5002610;28;20037;-58
2022/06/16 02:47:44;;;;;;;1.33;1.02;;;;;;;;;;4993669;28;20108;-57
2022/06/16 02:50:12;;;;;;;2.10;1.08;;;;;;;;;;4993762;28;20496;-58
2022/06/16 02:52:40;;;;;;;2.33;1.08;;;;;;;;;;4975791;28;20150;-57
2022/06/16 02:55:18;;;;;;;1.48;0.90;;;;;;;;;;4992682;28;20542;-57
2022/06/16 02:57:49;;;;;;;1.25;1.15;;;;;;;;;;4991858;28;20146;-58
2022/06/16 03:00:17;;;;;;;1.80;1.20;;;;;;;;;;5007324;28;20048;-58
2022/06/16 03:02:43;;;;;;;1.50;1.10;;;;;;;;;;4999492;28;20286;-58
2022/06/16 03:05:10;;;;;;;2.28;1.23;;;;;;;;;;4975725;28;20062;-59
2022/06/16 03:07:37;;;;;;;1.00;0.90;;;;;;;;;;4992552;28;20522;-59
2022/06/16 03:10:04;;;;;;;2.50;1.25;;;;;;;;;;4996154;28;20044;-58
2022/06/16 03:12:30;;;;;;;1.85;1.08;;;;;;;;;;5010763;28;20068;-58
2022/06/16 03:14:56;;;;;;;1.70;0.90;;;;;;;;;;5012506;28;20091;-58
2022/06/16 03:17:22;;;;;;;2.55;1.17;;;;;;;;;;5012707;28;20077;-58
2022/06/16 03:19:48;;;;;;;3.38;1.30;;;;;;;;;;5012201;28;20060;-57
2022/06/16 03:22:14;;;;;;;2.33;1.08;;;;;;;;;;5012079;28;20045;-57
2022/06/16 03:24:40;;;;;;;2.00;1.15;;;;;;;;;;5011332;28;20471;-58
2022/06/16 03:27:07;;;;;;;2.78;1.20;;;;;;;;;;5011482;28;20046;-59
2022/06/16 03:29:34;;;;;;;0.80;0.80;;;;;;;;;;4996701;28;20057;-59
2022/06/16 03:32:00;;;;;;;1.25;1.00;;;;;;;;;;5009304;28;20547;-59
2022/06/16 03:34:26;;;;;;;1.60;1.05;;;;;;;;;;5011838;28;20057;-62
2022/06/16 03:36:52;;;;;;;2.22;1.02;;;;;;;;;;5012125;28;20120;-58
2022/06/16 03:39:19;;;;;;;1.65;1.10;;;;;;;;;;5011148;28;20042;-58
2022/06/16 03:41:45;;;;;;;1.20;1.10;;;;;;;;;;5011413;28;20436;-58
2022/06/16 03:44:11;;;;;;;1.38;0.88;;;;;;;;;;5010860;28;20072;-58
2022/06/16 03:46:37;;;;;;;1.08;0.90;;;;;;;;;;4992467;28;20457;-58
2022/06/16 03:49:04;;;;;;;1.33;1.02;;;;;;;;;;4992440;28;20050;-58
2022/06/16 03:51:31;;;;;;;1.52;1.20;;;;;;;;;;4992107;28;20050;-58
2022/06/16 03:53:57;;;;;;;1.00;0.90;;;;;;;;;;4991516;28;20046;-57
2022/06/16 03:56:23;;;;;;;1.23;1.00;;;;;;;;;;4975363;28;20046;-57
2022/06/16 03:58:53;;;;;;;0.75;0.75;;;;;;;;;;4991005;28;20096;-58
2022/06/16 04:01:19;;;;;;;1.42;0.80;;;;;;;;;;5011804;28;20046;-58
2022/06/16 04:04:01;;;;;;;1.65;0.90;;;;;;;;;;5007162;28;20043;-58
2022/06/16 04:06:36;;;;;;;1.50;1.20;;;;;;;;;;4992372;28;20038;-58
2022/06/16 04:09:03;;;;;;;1.58;1.15;;;;;;;;;;4991271;28;20047;-59
2022/06/16 04:11:32;;;;;;;1.02;0.80;;;;;;;;;;4990391;28;20046;-62
2022/06/16 04:14:00;;;;;;;0.95;0.80;;;;;;;;;;5010490;28;20495;-58
2022/06/16 04:16:27;;;;;;;1.10;1.00;;;;;;;;;;4994416;28;20550;-59
2022/06/16 04:18:54;;;;;;;2.08;1.40;;;;;;;;;;4993671;28;20046;-59
2022/06/16 04:21:20;;;;;;;1.88;1.00;;;;;;;;;;5011670;28;20056;-58
2022/06/16 04:23:46;;;;;;;1.25;0.90;;;;;;;;;;5010565;28;20491;-58
2022/06/16 04:26:12;;;;;;;1.80;1.08;;;;;;;;;;5009959;28;20497;-58
2022/06/16 04:28:38;;;;;;;0.90;0.85;;;;;;;;;;4980857;28;20054;-58
2022/06/16 04:31:04;;;;;;;1.30;1.00;;;;;;;;;;5010881;28;20037;-57
2022/06/16 04:33:30;;;;;;;0.82;0.80;;;;;;;;;;5007851;28;20092;-63
2022/06/16 04:35:57;;;;;;;0.98;0.88;;;;;;;;;;4994528;28;20058;-60
2022/06/16 04:38:23;;;;;;;1.20;0.90;;;;;;;;;;4991592;28;20057;-59
2022/06/16 04:40:49;;;;;;;2.88;0.90;;;;;;;;;;4990236;28;20053;-59
2022/06/16 04:43:15;;;;;;;1.25;1.02;;;;;;;;;;4994776;28;20140;-58
2022/06/16 04:45:42;;;;;;;2.33;1.10;;;;;;;;;;5006016;28;20473;-58
2022/06/16 04:48:08;;;;;;;1.75;1.05;;;;;;;;;;5007811;28;20045;-58
2022/06/16 04:50:35;;;;;;;1.40;1.20;;;;;;;;;;5006892;28;20050;-58
2022/06/16 04:53:01;;;;;;;1.50;1.10;;;;;;;;;;5009646;28;20034;-58
2022/06/16 04:55:27;;;;;;;1.50;0.80;;;;;;;;;;5007473;28;20433;-58
2022/06/16 04:57:56;;;;;;;1.17;1.08;;;;;;;;;;5003054;28;20046;-59
2022/06/16 05:00:23;;;;;;;1.67;1.27;;;;;;;;;;4982987;28;20054;-58
2022/06/16 05:02:49;;;;;;;5.43;2.35;;;;;;;;;;5003078;28;20124;-59
2022/06/16 05:05:15;;;;;;;6.63;2.80;;;;;;;;;;5011209;28;20100;-58
2022/06/16 05:07:41;;;;;;;5.28;2.17;;;;;;;;;;5010667;28;20044;-57
2022/06/16 05:10:08;;;;;;;5.43;2.30;;;;;;;;;;5011088;28;20053;-58
2022/06/16 05:12:34;;;;;;;5.07;2.30;;;;;;;;;;5000155;28;20042;-63
2022/06/16 05:15:00;;;;;;;4.90;1.95;;;;;;;;;;4975119;28;20620;-58
2022/06/16 05:17:26;;;;;;;5.45;2.20;;;;;;;;;;4992219;28;20053;-58
2022/06/16 05:19:52;;;;;;;4.80;1.88;;;;;;;;;;4991704;28;20052;-58
2022/06/16 05:22:18;;;;;;;2.45;1.60;;;;;;;;;;5001026;28;20056;-58
2022/06/16 05:24:44;;;;;;;2.95;1.70;;;;;;;;;;5010510;28;20046;-58
2022/06/16 05:27:11;;;;;;;3.22;2.00;;;;;;;;;;5010905;28;20046;-58
2022/06/16 05:29:37;;;;;;;1.83;1.42;;;;;;;;;;4992958;28;20042;-60
2022/06/16 05:32:03;;;;;;;5.00;1.70;;;;;;;;;;4992180;28;20050;-58
2022/06/16 05:34:29;;;;;;;3.13;1.88;;;;;;;;;;4992286;28;20424;-58
2022/06/16 05:36:56;;;;;;;2.50;1.50;;;;;;;;;;4991947;28;20157;-58
2022/06/16 05:39:22;;;;;;;1.98;1.45;;;;;;;;;;4993276;28;20046;-58
2022/06/16 05:41:48;;;;;;;3.22;1.60;;;;;;;;;;5010610;28;20053;-57
2022/06/16 05:44:14;;;;;;;1.70;1.38;;;;;;;;;;5010963;28;20049;-57
2022/06/16 05:46:41;;;;;;;4.72;1.65;;;;;;;;;;5010850;28;20048;-58
2022/06/16 05:49:07;;;;;;;7.30;1.92;;;;;;;;;;5011372;28;20119;-58
2022/06/16 05:51:33;;;;;;;6.57;1.65;;;;;;;;;;4994124;28;20434;-57
2022/06/16 05:53:59;;;;;;;1.70;1.40;;;;;;;;;;5010100;28;20081;-57
2022/06/16 05:56:25;;;;;;;3.38;1.85;;;;;;;;;;5001721;28;20101;-59
2022/06/16 05:58:51;;;;;;;3.60;1.65;;;;;;;;;;4989240;28;20092;-57
2022/06/16 06:01:17;;;;;;;;;;;;;;;;;;5009870;28;20053;-57
2022/06/16 06:03:44;;;;;;;3.58;1.50;;;;;;;;;;5010825;28;19917;-58
2022/06/16 06:06:10;;;;;;;2.38;1.52;;;;;;;;;;5011070;28;20044;-60
2022/06/16 06:17:21;;;;;;;2.28;1.35;;;;;;;;;;4970492;28;20042;-58
2022/06/16 06:19:47;;;;;;;3.20;1.90;;;;;;;;;;5004112;28;20042;-59
2022/06/16 06:22:14;;;;;;;1.60;1.40;;;;;;;;;;5001136;28;20387;-57
2022/06/16 06:24:48;;;;;;;2.55;1.52;;;;;;;;;;4992218;28;20459;-58
2022/06/16 06:27:19;;;;;;;1.80;1.33;;;;;;;;;;5010248;28;20085;-57
2022/06/16 06:29:46;;;;;;;1.83;1.20;;;;;;;;;;5010064;28;20501;-58
2022/06/16 06:32:13;;;;;;;3.80;1.48;;;;;;;;;;5010967;28;20049;-58
2022/06/16 06:34:39;;;;;;;1.58;1.30;;;;;;;;;;4996468;28;20479;-63
2022/06/16 06:37:07;;;;;;;1.70;1.30;;;;;;;;;;4990892;28;20158;-57
2022/06/16 06:39:33;;;;;;;3.47;1.50;;;;;;;;;;5006820;28;20054;-57
2022/06/16 06:42:03;;;;;;;2.30;1.65;;;;;;;;;;4989936;28;20050;-58
2022/06/16 06:44:29;;;;;;;3.85;1.30;;;;;;;;;;4974512;28;20056;-58
2022/06/16 06:46:55;;;;;;;1.80;1.45;;;;;;;;;;4993191;28;20140;-58
2022/06/16 06:49:21;;;;;;;1.67;1.20;;;;;;;;;;5002636;28;20078;-59
2022/06/16 06:51:47;;;;;;;2.40;1.38;;;;;;;;;;4990680;28;20056;-59
2022/06/16 06:54:13;;;;;;;2.00;1.15;;;;;;;;;;4973089;28;20050;-57
2022/06/16 06:56:40;;;;;;;3.67;1.30;;;;;;;;;;4990490;28;20439;-63
2022/06/16 06:59:06;;;;;;;1.13;1.00;;;;;;;;;;4997326;28;20460;-58
2022/06/16 07:01:33;;;;;;;1.55;1.45;;;;;;;;;;4992390;28;20058;-58
2022/06/16 07:04:00;;;;;;;1.33;1.23;;;;;;;;;;5000319;28;20050;-58
2022/06/16 07:06:27;;;;;;;2.88;1.20;;;;;;;;;;4998246;28;20395;-59
2022/06/16 07:08:53;;;;;;;1.73;1.27;;;;;;;;;;4972819;28;20058;-61
2022/06/16 07:11:19;;;;;;;3.08;1.42;;;;;;;;;;4990601;28;20054;-58
2022/06/16 07:13:45;;;;;;;1.23;1.13;;;;;;;;;;4990770;28;20468;-58
2022/06/16 07:16:11;;;;;;;1.88;1.20;;;;;;;;;;5006661;28;20037;-58
2022/06/16 07:18:37;;;;;;;1.27;1.05;;;;;;;;;;5011349;28;20475;-58
2022/06/16 07:21:04;;;;;;;1.52;1.20;;;;;;;;;;5005335;28;20047;-58
2022/06/16 07:23:30;;;;;;;4.88;1.33;;;;;;;;;;4976968;28;20373;-58
2022/06/16 07:25:56;;;;;;;2.28;1.00;;;;;;;;;;4993101;28;20047;-58
2022/06/16 07:28:22;;;;;;;2.13;1.20;;;;;;;;;;4976341;28;20604;-60
2022/06/16 07:30:48;;;;;;;1.48;1.20;;;;;;;;;;4992637;28;20050;-58
2022/06/16 07:33:15;;;;;;;1.95;1.30;;;;;;;;;;4992982;28;20651;-58
2022/06/16 07:35:43;;;;;;;3.25;1.30;;;;;;;;;;4976123;28;20085;-59
2022/06/16 07:38:10;;;;;;;1.23;1.08;;;;;;;;;;4976830;28;20059;-58
2022/06/16 07:40:37;;;;;;;1.20;1.10;;;;;;;;;;4996570;28;20093;-58
2022/06/16 07:43:03;;;;;;;1.75;1.10;;;;;;;;;;5012215;28;20506;-59
2022/06/16 07:45:29;;;;;;;1.30;1.20;;;;;;;;;;5002573;28;20427;-58
2022/06/16 07:47:57;;;;;;;1.83;1.30;;;;;;;;;;4993651;28;20109;-58
2022/06/16 07:50:24;;;;;;;1.65;1.08;;;;;;;;;;4976776;28;20480;-58
2022/06/16 07:52:50;;;;;;;2.25;1.25;;;;;;;;;;4992715;28;20038;-58
2022/06/16 07:55:18;;;;;;;1.20;1.10;;;;;;;;;;4981958;28;20390;-59
2022/06/16 07:57:46;;;;;;;3.30;1.10;;;;;;;;;;4994993;28;20060;-63
2022/06/16 08:00:14;;;;;;;2.65;1.42;;;;;;;;;;5013272;28;20369;-57
2022/06/16 08:02:40;;;;;;;3.28;1.40;;;;;;;;;;5013337;28;20107;-58
2022/06/16 08:05:06;;;;;;;1.25;1.15;;;;;;;;;;5011906;28;20084;-57
2022/06/16 08:07:33;;;;;;;1.95;1.20;;;;;;;;;;5005603;28;20069;-58
2022/06/16 08:09:59;;;;;;;1.63;1.30;;;;;;;;;;5002754;28;20069;-58
2022/06/16 08:12:26;;;;;;;2.15;1.20;;;;;;;;;;4992693;28;20050;-58
2022/06/16 08:14:52;;;;;;;2.17;1.20;;;;;;;;;;4993069;28;20057;-59
2022/06/16 08:17:21;;;;;;;1.20;1.10;;;;;;;;;;4976363;28;20050;-57
2022/06/16 08:19:47;;;;;;;2.90;1.10;;;;;;;;;;4975911;28;20046;-63
2022/06/16 08:22:13;;;;;;;1.38;0.95;;;;;;;;;;4975916;28;20420;-58
2022/06/16 08:24:39;;;;;;;2.00;1.17;;;;;;;;;;4992439;28;20049;-58
2022/06/16 08:27:06;;;;;;;0.85;0.85;;;;;;;;;;4975962;28;20115;-59
2022/06/16 08:29:33;;;;;;;1.70;1.17;;;;;;;;;;4994533;28;20042;-57
2022/06/16 08:31:59;;;;;;;1.40;1.20;;;;;;;;;;5004570;28;20121;-57
2022/06/16 08:34:26;;;;;;;2.90;1.10;;;;;;;;;;5006017;28;20045;-58
2022/06/16 08:36:52;;;;;;;1.33;1.10;;;;;;;;;;5011886;28;20479;-57
2022/06/16 08:39:18;;;;;;;1.20;1.10;;;;;;;;;;4994133;28;20420;-58
2022/06/16 08:41:47;;;;;;;1.52;1.08;;;;;;;;;;5011761;28;20046;-58
2022/06/16 08:44:18;;;;;;;0.88;0.88;;;;;;;;;;4993741;28;20048;-58
2022/06/16 08:46:47;;;;;;;2.30;1.00;;;;;;;;;;5012573;28;20099;-58
2022/06/16 08:49:19;;;;;;;1.75;1.10;;;;;;;;;;5012080;28;20042;-58
2022/06/16 08:51:45;;;;;;;1.38;1.25;;;;;;;;;;4997030;28;20053;-60
2022/06/16 08:54:14;;;;;;;1.20;1.10;;;;;;;;;;4974261;28;20057;-58
2022/06/16 08:56:40;;;;;;;1.02;0.93;;;;;;;;;;4992398;28;20046;-60
2022/06/16 08:59:07;;;;;;;;;;;;;;;;;;4993927;28;20095;-58
2022/06/16 09:01:42;;;;;;;1.20;1.10;;;;;;;;;;5012170;28;19917;-57
2022/06/16 09:04:10;;;;;;;1.48;1.27;;;;;;;;;;5009648;28;20049;-58
2022/06/16 09:06:47;;;;;;;0.80;0.80;;;;;;;;;;4992563;28;20034;-57
2022/06/16 09:12:34;;;;;;;2.10;1.00;;;;;;;;;;4995080;28;20116;-58
2022/06/16 09:15:21;;;;;;;1.10;1.00;;;;;;;;;;4993447;28;20398;-58
2022/06/16 09:17:55;;;;;;;1.08;1.08;;;;;;;;;;5002531;28;20046;-57
2022/06/16 09:20:32;;;;;;;1.45;1.10;;;;;;;;;;4992258;28;20044;-59
2022/06/16 09:23:04;;;;;;;2.60;1.13;;;;;;;;;;4991672;28;20042;-59
2022/06/16 09:25:37;;;;;;;1.20;0.95;;;;;;;;;;4991507;28;20049;-58
2022/06/16 09:28:16;;;;;;;1.50;1.10;;;;;;;;;;4990926;28;20042;-58
2022/06/16 09:30:43;;;;;;;1.10;0.73;;;;;;;;;;4992949;28;20048;-58
2022/06/16 09:33:16;;;;;;;2.75;1.38;;;;;;;;;;4991098;28;20054;-58
2022/06/16 09:35:45;;;;;;;1.30;1.00;;;;;;;;;;5007609;28;20050;-58
2022/06/16 09:38:21;;;;;;;1.20;1.10;;;;;;;;;;5010971;28;20064;-57
2022/06/16 09:40:47;;;;;;;1.10;1.00;;;;;;;;;;4993285;28;20130;-58
2022/06/16 09:43:13;;;;;;;;;;;;;;;;;;5010412;28;20129;-58
2022/06/16 09:46:05;;;;;;;0.85;0.85;;;;;;;;;;5011338;28;20020;-58
2022/06/16 09:48:34;;;;;;;1.92;1.08;;;;;;;;;;5006935;28;20734;-58
2022/06/16 09:51:06;;;;;;;1.67;1.05;;;;;;;;;;5003515;28;20097;-58
2022/06/16 09:53:36;;;;;;;2.05;1.00;;;;;;;;;;5011421;28;20132;-58
2022/06/16 09:56:04;;;;;;;1.13;1.02;;;;;;;;;;4990583;28;20038;-58
2022/06/16 09:58:42;;;;;;;0.85;0.80;;;;;;;;;;4973698;28;20430;-58
2022/06/16 10:01:10;;;;;;;1.00;1.00;;;;;;;;;;4973904;28;20407;-57
2022/06/16 10:03:39;;;;;;;1.15;0.98;;;;;;;;;;4991752;28;20034;-58
2022/06/16 10:06:21;;;;;;;0.95;0.93;;;;;;;;;;4990988;28;20049;-58
2022/06/16 10:08:47;;;;;;;1.27;1.17;;;;;;;;;;4993225;28;20054;-58
2022/06/16 10:11:13;;;;;;;;;;;;;;;;;;4973523;28;20065;-57
2022/06/16 10:13:47;;;;;;;2.05;1.08;;;;;;;;;;4989454;28;19926;-58
2022/06/16 10:16:19;;;;;;;0.90;0.90;;;;;;;;;;4991064;28;20121;-58
2022/06/16 10:18:46;;;;;;;1.30;0.88;;;;;;;;;;4991492;28;20145;-57
2022/06/16 10:21:13;;;;;;;1.50;1.30;;;;;;;;;;4990959;28;20053;-57
2022/06/16 10:23:44;;;;;;;1.80;1.20;;;;;;;;;;4996704;28;20093;-58
2022/06/16 10:26:10;;;;;;;1.33;1.10;;;;;;;;;;5009344;28;20052;-58
2022/06/16 10:29:00;;;;;;;2.00;1.20;;;;;;;;;;4995469;28;20049;-58
2022/06/16 10:31:40;;;;;;;1.25;1.00;;;;;;;;;;5008289;28;20053;-58
2022/06/16 10:34:17;;;;;;;1.27;0.95;;;;;;;;;;5010272;28;20459;-57
2022/06/16 10:36:48;;;;;;;2.03;1.15;;;;;;;;;;5010731;28;20455;-58
2022/06/16 10:39:20;;;;;;;1.02;0.77;;;;;;;;;;4993883;28;20065;-57
2022/06/16 10:42:00;;;;;;;1.65;1.05;;;;;;;;;;4999043;28;20460;-58
2022/06/16 10:44:27;;;;;;;1.20;1.10;;;;;;;;;;4993321;28;20052;-59
2022/06/16 10:46:57;;;;;;;1.40;1.27;;;;;;;;;;4973953;28;20042;-58
2022/06/16 10:49:25;;;;;;;1.25;1.10;;;;;;;;;;4991017;28;20050;-58
2022/06/16 10:52:01;;;;;;;0.93;0.90;;;;;;;;;;4991263;28;20448;-58
2022/06/16 10:54:29;;;;;;;1.85;1.13;;;;;;;;;;4992624;28;20403;-58
2022/06/16 10:57:08;;;;;;;1.30;1.10;;;;;;;;;;5013797;28;20761;-60
2022/06/16 10:59:37;;;;;;;0.98;0.98;;;;;;;;;;5009733;28;20048;-58
2022/06/16 11:02:16;;;;;;;2.67;1.20;;;;;;;;;;5008417;28;20129;-58
2022/06/16 11:04:43;;;;;;;1.15;1.00;;;;;;;;;;4994796;28;20124;-58
2022/06/16 11:07:17;;;;;;;1.15;1.00;;;;;;;;;;4976970;28;20046;-58
2022/06/16 11:09:45;;;;;;;1.33;1.08;;;;;;;;;;4993893;28;20082;-57
2022/06/16 11:12:16;;;;;;;1.00;0.90;;;;;;;;;;4993196;28;20061;-58
2022/06/16 11:15:00;;;;;;;1.75;1.17;;;;;;;;;;4998957;28;20077;-58
2022/06/16 11:17:37;;;;;;;1.27;1.15;;;;;;;;;;4992991;28;20085;-58
2022/06/16 11:20:06;;;;;;;1.15;0.93;;;;;;;;;;4994000;28;20140;-58
2022/06/16 11:22:35;;;;;;;1.92;1.10;;;;;;;;;;4977279;28;20050;-58
2022/06/16 11:25:18;;;;;;;1.35;1.00;;;;;;;;;;4993212;28;20125;-63
2022/06/16 11:27:57;;;;;;;1.75;1.08;;;;;;;;;;4978560;28;20050;-58
2022/06/16 11:30:40;;;;;;;2.05;1.05;;;;;;;;;;4993777;28;20046;-58
2022/06/16 11:34:06;;;;;;;1.40;1.30;;;;;;;;;;4993332;28;20042;-59
2022/06/16 11:36:09;;;;;;;2.28;1.05;;;;;;;;;;4993180;28;20385;-59
2022/06/16 11:38:40;;;;;;;1.17;1.08;;;;;;;;;;4994156;28;20088;-59
2022/06/16 11:41:07;;;;;;;1.35;1.10;;;;;;;;;;4994309;28;20046;-59
2022/06/16 11:43:48;;;;;;;2.47;1.00;;;;;;;;;;4993271;28;20072;-58
2022/06/16 11:46:24;;;;;;;1.42;1.20;;;;;;;;;;5003177;28;20037;-59
2022/06/16 11:49:00;;;;;;;0.90;0.90;;;;;;;;;;4996223;28;20510;-58
2022/06/16 11:51:33;;;;;;;1.63;1.10;;;;;;;;;;5005390;28;20049;-58
2022/06/16 11:54:05;;;;;;;2.30;1.10;;;;;;;;;;4995214;28;20081;-60
2022/06/16 11:57:00;;;;;;;1.15;1.05;;;;;;;;;;4996287;28;20046;-58
2022/06/16 11:59:41;;;;;;;1.13;1.00;;;;;;;;;;4977211;28;20055;-58
2022/06/16 12:02:26;;;;;;;1.23;1.13;;;;;;;;;;4993147;28;20082;-59
2022/06/16 12:04:52;;;;;;;1.52;1.00;;;;;;;;;;4976119;28;20379;-59
2022/06/16 12:07:37;;;;;;;1.10;1.00;;;;;;;;;;5009636;28;20424;-58
2022/06/16 12:10:03;;;;;;;3.22;1.38;;;;;;;;;;5011909;28;20077;-63
2022/06/16 12:12:41;;;;;;;1.13;1.02;;;;;;;;;;4994630;28;20045;-58
2022/06/16 12:15:07;;;;;;;1.50;1.02;;;;;;;;;;4979160;28;20045;-59
2022/06/16 12:17:46;;;;;;;1.15;1.02;;;;;;;;;;5012843;28;20491;-57
2022/06/16 12:20:18;;;;;;;1.23;1.00;;;;;;;;;;5012459;28;20052;-58
2022/06/16 12:22:53;;;;;;;1.73;1.20;;;;;;;;;;4994142;28;20048;-58
2022/06/16 12:25:23;;;;;;;1.25;1.10;;;;;;;;;;5001367;28;20074;-57
2022/06/16 12:28:10;;;;;;;1.23;1.00;;;;;;;;;;4991398;28;20050;-58
2022/06/16 12:30:42;;;;;;;1.48;1.10;;;;;;;;;;5003224;28;20069;-60
2022/06/16 12:33:27;;;;;;;1.23;0.90;;;;;;;;;;4995052;28;20096;-57
2022/06/16 12:35:59;;;;;;;0.98;0.90;;;;;;;;;;5012362;28;20117;-58
2022/06/16 12:38:28;;;;;;;1.27;1.17;;;;;;;;;;4994764;28;20049;-60
2022/06/16 12:41:09;;;;;;;1.17;1.08;;;;;;;;;;5011712;28;20132;-60
2022/06/16 12:43:44;;;;;;;0.85;0.85;;;;;;;;;;5004096;28;20038;-58
2022/06/16 12:46:23;;;;;;;2.05;1.10;;;;;;;;;;5011962;28;20042;-58
2022/06/16 12:48:52;;;;;;;0.95;0.90;;;;;;;;;;4995019;28;20041;-59
2022/06/16 12:51:21;;;;;;;1.45;1.35;;;;;;;;;;5012135;28;20407;-60
2022/06/16 12:54:19;;;;;;;1.95;1.20;;;;;;;;;;5012399;28;20121;-58
2022/06/16 12:56:48;;;;;;;0.90;0.90;;;;;;;;;;4946816;28;20473;-59
2022/06/16 12:59:17;;;;;;;2.28;1.70;;;;;;;;;;4991634;28;20108;-58
2022/06/16 13:01:44;;;;;;;1.15;1.00;;;;;;;;;;4992477;28;20097;-58
2022/06/16 13:04:17;;;;;;;1.10;1.00;;;;;;;;;;4974422;28;20132;-57
2022/06/16 13:06:45;;;;;;;1.05;1.00;;;;;;;;;;4995878;28;20029;-59
2022/06/16 13:09:12;;;;;;;3.22;1.45;;;;;;;;;;4993022;28;20835;-58
2022/06/16 13:11:49;;;;;;;1.27;1.15;;;;;;;;;;4977429;28;20480;-61
2022/06/16 13:14:22;;;;;;;1.33;1.10;;;;;;;;;;4974477;28;20152;-58
2022/06/16 13:16:49;;;;;;;1.10;1.00;;;;;;;;;;4974772;28;20046;-59
2022/06/16 13:19:18;;;;;;;1.42;1.08;;;;;;;;;;4991794;28;20050;-58
2022/06/16 13:21:55;;;;;;;0.88;0.88;;;;;;;;;;4994009;28;20361;-58
2022/06/16 13:24:40;;;;;;;1.98;1.40;;;;;;;;;;4990963;28;20085;-58
2022/06/16 13:27:24;;;;;;;1.13;1.02;;;;;;;;;;4991301;28;20042;-58
2022/06/16 13:29:50;;;;;;;1.00;0.98;;;;;;;;;;5009555;28;20049;-58
2022/06/16 13:32:16;;;;;;;;;;;;;;;;;;5001449;28;20046;-58
2022/06/16 13:34:49;;;;;;;1.17;1.03;;;;;;;;;;4980295;28;19924;-58
2022/06/16 13:37:28;;;;;;;1.30;1.10;;;;;;;;;;4975804;28;20041;-57
2022/06/16 13:39:58;;;;;;;1.80;1.10;;;;;;;;;;4990822;28;20125;-57
2022/06/16 13:42:43;;;;;;;1.10;1.00;;;;;;;;;;4990556;28;20042;-58
2022/06/16 13:45:12;;;;;;;1.20;1.10;;;;;;;;;;4991631;28;20049;-63
2022/06/16 13:47:46;;;;;;;1.65;1.05;;;;;;;;;;4974785;28;20058;-58
2022/06/16 13:50:23;;;;;;;3.30;1.20;;;;;;;;;;4991226;28;20053;-58
2022/06/16 13:52:58;;;;;;;1.73;1.00;;;;;;;;;;4992965;28;20046;-58
2022/06/16 13:55:26;;;;;;;2.47;1.23;;;;;;;;;;4973013;28;20060;-58
2022/06/16 13:58:11;;;;;;;1.42;1.20;;;;;;;;;;4993169;28;20042;-58
2022/06/16 14:00:37;;;;;;;2.17;1.70;;;;;;;;;;4993773;28;20038;-58
2022/06/16 14:03:05;;;;;;;1.27;1.00;;;;;;;;;;5011337;28;20045;-57
2022/06/16 14:05:33;;;;;;;1.23;1.10;;;;;;;;;;4999183;28;20038;-58
2022/06/16 14:08:07;;;;;;;1.35;1.25;;;;;;;;;;4991213;28;20484;-58
2022/06/16 14:10:47;;;;;;;1.35;1.25;;;;;;;;;;4990243;28;20092;-58
2022/06/16 14:13:13;;;;;;;1.20;1.10;;;;;;;;;;5004751;28;20046;-60
2022/06/16 14:15:39;;;;;;;;;;;;;;;;;;5004600;28;20076;-58
2022/06/16 14:18:24;;;;;;;1.33;1.20;;;;;;;;;;4991601;28;20015;-58
2022/06/16 14:20:51;;;;;;;1.30;1.20;;;;;;;;;;4993051;28;20042;-58
2022/06/16 14:23:22;;;;;;;1.95;1.25;;;;;;;;;;4993145;28;20179;-58
2022/06/16 14:25:50;;;;;;;0.90;0.90;;;;;;;;;;5010169;28;20060;-58
2022/06/16 14:28:28;;;;;;;1.25;1.15;;;;;;;;;;5006145;28;20046;-57
2022/06/16 14:30:55;;;;;;;1.23;0.90;;;;;;;;;;4978210;28;20050;-59
2022/06/16 14:33:24;;;;;;;2.17;1.25;;;;;;;;;;5004176;28;20049;-57
2022/06/16 14:35:59;;;;;;;1.38;1.05;;;;;;;;;;5014640;28;20048;-57
2022/06/16 14:38:36;;;;;;;1.20;1.10;;;;;;;;;;5014386;28;20062;-57
2022/06/16 14:41:02;;;;;;;2.53;1.13;;;;;;;;;;4977281;28;20050;-59
2022/06/16 14:43:28;;;;;;;;;;;;;;;;;;4994280;28;20046;-58
2022/06/16 14:46:11;;;;;;;1.13;1.00;;;;;;;;;;4994512;28;19917;-58
2022/06/16 14:48:39;;;;;;;2.00;1.05;;;;;;;;;;4994906;28;20042;-58
2022/06/16 14:51:12;;;;;;;1.23;1.13;;;;;;;;;;4995086;28;20046;-58
2022/06/16 14:53:40;;;;;;;2.63;1.40;;;;;;;;;;4994644;28;20153;-58
2022/06/16 14:56:10;;;;;;;1.02;0.90;;;;;;;;;;4996299;28;20092;-58
2022/06/16 14:58:44;;;;;;;1.20;1.10;;;;;;;;;;4993648;28;20136;-58
2022/06/16 15:01:11;;;;;;;0.82;0.82;;;;;;;;;;4994818;28;20042;-58
2022/06/16 15:03:37;;;;;;;2.25;1.10;;;;;;;;;;5003145;28;20046;-59
2022/06/16 15:06:05;;;;;;;1.67;1.10;;;;;;;;;;4996607;28;20499;-58
2022/06/16 15:08:31;;;;;;;0.98;0.90;;;;;;;;;;5013825;28;20046;-58
2022/06/16 15:10:58;;;;;;;1.45;1.20;;;;;;;;;;4988961;28;20050;-58
2022/06/16 15:13:26;;;;;;;1.85;1.23;;;;;;;;;;4993268;28;20125;-58
2022/06/16 15:16:00;;;;;;;1.60;1.10;;;;;;;;;;4977430;28;20376;-58
2022/06/16 15:18:28;;;;;;;1.20;1.10;;;;;;;;;;5002684;28;20041;-61
2022/06/16 15:20:55;;;;;;;1.05;1.05;;;;;;;;;;4996846;28;20050;-58